Time;durP1;ratioP1;P1;durP2;ratioP2;P2;SDS_P1;SDS_P2;PMS_P1;PMS_P2;Temp;Humidity;BMP_temperature;BMP_pressure;BME280_temperature;BME280_humidity;BME280_pressure;Samples;Min_cycle;Max_cycle;Signal;HPM_P1;HPM_P2
2022/10/23 00:00:30;;;;;;;2.38;1.60;;;13.50;80.40;;;;;;5085285;28;20028;-61
2022/10/23 00:02:58;;;;;;;1.83;1.52;;;13.50;80.40;;;;;;5072102;28;20039;-61
2022/10/23 00:05:24;;;;;;;2.22;1.85;;;13.50;80.40;;;;;;5066539;28;20101;-61
2022/10/23 00:07:52;;;;;;;2.05;1.40;;;13.50;80.50;;;;;;5058561;28;20052;-61
2022/10/23 00:10:18;;;;;;;1.75;1.50;;;13.50;80.40;;;;;;5072433;28;20111;-62
2022/10/23 00:12:44;;;;;;;1.80;1.67;;;13.50;80.50;;;;;;5059396;28;20048;-61
2022/10/23 00:15:11;;;;;;;1.38;1.25;;;13.50;80.50;;;;;;5070922;28;20059;-62
2022/10/23 00:17:37;;;;;;;2.05;1.67;;;13.50;80.50;;;;;;5059770;28;20017;-61
2022/10/23 00:20:04;;;;;;;1.90;1.70;;;13.50;80.50;;;;;;5070372;28;20029;-62
2022/10/23 00:22:30;;;;;;;2.10;1.80;;;13.50;80.60;;;;;;5071870;28;20017;-62
2022/10/23 00:24:55;;;;;;;4.68;2.17;;;13.50;80.70;;;;;;5071455;28;20043;-61
2022/10/23 00:27:21;;;;;;;3.28;2.00;;;13.50;80.70;;;;;;5072494;28;20028;-61
2022/10/23 00:29:47;;;;;;;1.83;1.70;;;13.50;80.70;;;;;;5071870;28;20039;-61
2022/10/23 00:32:12;;;;;;;2.20;2.00;;;13.50;80.70;;;;;;5072685;28;20056;-61
2022/10/23 00:34:38;;;;;;;2.20;2.00;;;13.50;80.70;;;;;;5082626;28;20048;-61
2022/10/23 00:37:03;;;;;;;1.88;1.67;;;13.50;80.90;;;;;;5071976;28;20028;-61
2022/10/23 00:39:29;;;;;;;2.47;1.85;;;13.50;80.90;;;;;;5069810;28;20074;-62
2022/10/23 00:41:55;;;;;;;2.83;2.15;;;13.50;80.80;;;;;;5065761;28;20028;-62
2022/10/23 00:44:20;;;;;;;2.28;2.03;;;13.60;81.10;;;;;;5071458;28;20029;-62
2022/10/23 00:46:46;;;;;;;2.60;2.10;;;13.60;81.10;;;;;;5071089;28;20024;-61
2022/10/23 00:49:13;;;;;;;2.05;1.63;;;13.60;81.10;;;;;;5072457;28;20025;-62
2022/10/23 00:51:46;;;;;;;2.47;2.15;;;13.60;81.10;;;;;;5071611;28;20012;-62
2022/10/23 00:54:15;;;;;;;2.50;2.30;;;13.60;81.20;;;;;;5071205;28;20025;-62
2022/10/23 00:56:43;;;;;;;3.13;2.33;;;13.60;81.20;;;;;;5063606;28;20021;-62
2022/10/23 00:59:09;;;;;;;2.58;2.30;;;13.60;81.30;;;;;;5066837;28;20028;-61
2022/10/23 01:01:35;;;;;;;2.67;2.47;;;13.60;81.40;;;;;;5071570;28;20025;-61
2022/10/23 01:04:03;;;;;;;1.75;1.65;;;13.60;81.30;;;;;;5071694;28;20032;-62
2022/10/23 01:06:41;;;;;;;2.42;2.22;;;13.60;81.40;;;;;;5068141;28;20024;-61
2022/10/23 01:09:38;;;;;;;2.30;2.08;;;13.60;81.40;;;;;;5068402;28;20104;-61
2022/10/23 01:12:33;;;;;;;1.77;1.63;;;13.60;81.30;;;;;;5069485;28;20089;-62
2022/10/23 01:15:30;;;;;;;2.00;1.90;;;13.60;81.40;;;;;;5071724;28;20032;-61
2022/10/23 01:18:18;;;;;;;1.25;1.15;;;13.60;81.50;;;;;;5066297;28;20043;-62
2022/10/23 01:20:49;;;;;;;1.55;1.45;;;13.60;81.80;;;;;;5066228;28;20036;-62
2022/10/23 01:23:34;;;;;;;1.38;1.38;;;13.50;81.70;;;;;;5068884;28;20021;-61
2022/10/23 01:26:28;;;;;;;1.40;1.30;;;13.50;81.90;;;;;;5072079;28;20488;-61
2022/10/23 01:29:06;;;;;;;2.47;1.30;;;13.60;81.90;;;;;;5071159;28;20017;-61
2022/10/23 01:31:43;;;;;;;3.55;1.60;;;13.50;81.90;;;;;;5073181;28;20058;-62
2022/10/23 01:34:21;;;;;;;1.63;1.50;;;13.60;82.70;;;;;;5075659;28;20020;-62
2022/10/23 01:36:49;;;;;;;1.00;1.00;;;13.60;82.30;;;;;;5073824;28;20407;-61
2022/10/23 01:39:39;;;;;;;1.30;1.20;;;13.50;82.10;;;;;;5074881;28;20027;-61
2022/10/23 01:42:12;;;;;;;1.55;1.45;;;13.60;82.20;;;;;;5064844;28;20041;-62
2022/10/23 01:44:56;;;;;;;1.83;1.58;;;13.60;82.10;;;;;;5075128;28;20035;-61
2022/10/23 01:47:26;;;;;;;1.67;1.30;;;13.60;82.00;;;;;;5074694;28;20025;-62
2022/10/23 01:49:53;;;;;;;1.33;1.23;;;13.60;82.20;;;;;;5062259;28;20450;-62
2022/10/23 01:52:21;;;;;;;2.63;1.58;;;13.60;82.30;;;;;;5075194;28;20020;-61
2022/10/23 01:54:48;;;;;;;1.63;1.52;;;13.50;82.20;;;;;;5075504;28;20024;-61
2022/10/23 01:57:17;;;;;;;1.42;1.33;;;13.60;82.30;;;;;;5073946;28;20031;-62
2022/10/23 01:59:50;;;;;;;1.38;1.27;;;13.50;82.30;;;;;;5074823;28;20093;-61
2022/10/23 02:02:19;;;;;;;1.30;1.20;;;13.60;83.00;;;;;;5072819;28;20028;-62
2022/10/23 02:05:15;;;;;;;1.23;1.10;;;13.50;82.30;;;;;;5075183;28;20033;-61
2022/10/23 02:07:42;;;;;;;1.52;1.40;;;13.60;82.30;;;;;;5069805;28;20032;-62
2022/10/23 02:10:09;;;;;;;1.58;1.13;;;13.60;82.40;;;;;;5075308;28;20468;-62
2022/10/23 02:12:56;;;;;;;1.60;1.40;;;13.60;82.50;;;;;;5074564;28;20085;-61
2022/10/23 02:15:39;;;;;;;1.75;1.65;;;13.60;82.40;;;;;;5074196;28;20017;-62
2022/10/23 02:18:17;;;;;;;1.30;1.20;;;13.50;82.40;;;;;;5073272;28;20074;-62
2022/10/23 02:20:47;;;;;;;2.60;1.42;;;13.60;82.50;;;;;;5074524;28;20021;-61
2022/10/23 02:23:15;;;;;;;2.35;1.48;;;13.60;82.60;;;;;;5073848;28;20024;-62
2022/10/23 02:26:05;;;;;;;1.50;1.40;;;13.60;82.70;;;;;;5074510;28;20044;-61
2022/10/23 02:28:39;;;;;;;1.60;1.50;;;13.60;82.60;;;;;;5072880;28;20052;-62
2022/10/23 02:31:09;;;;;;;1.40;1.30;;;13.60;82.80;;;;;;5074648;28;20016;-62
2022/10/23 02:33:35;;;;;;;1.85;1.75;;;13.60;82.70;;;;;;5074210;28;20387;-62
2022/10/23 02:36:01;;;;;;;1.63;1.52;;;13.60;82.80;;;;;;5073754;28;20036;-61
2022/10/23 02:38:36;;;;;;;2.15;1.58;;;13.60;82.70;;;;;;5074067;28;20020;-61
2022/10/23 02:41:41;;;;;;;2.00;1.63;;;13.60;82.80;;;;;;5073835;28;20027;-62
2022/10/23 02:44:24;;;;;;;1.50;1.40;;;13.60;82.70;;;;;;5044863;28;20037;-61
2022/10/23 02:46:59;;;;;;;1.30;1.20;;;13.60;82.70;;;;;;5072653;28;20464;-61
2022/10/23 02:49:31;;;;;;;1.30;1.20;;;13.60;82.90;;;;;;5073322;28;20054;-61
2022/10/23 02:52:06;;;;;;;1.63;1.52;;;13.60;83.00;;;;;;5074504;28;20028;-62
2022/10/23 02:55:16;;;;;;;2.47;1.85;;;13.50;82.90;;;;;;5073812;28;20021;-61
2022/10/23 02:57:51;;;;;;;1.40;1.30;;;13.50;82.90;;;;;;4971696;28;20041;-61
2022/10/23 03:00:19;;;;;;;1.75;1.48;;;13.60;83.20;;;;;;4983736;28;20058;-61
2022/10/23 03:02:56;;;;;;;1.60;1.50;;;13.60;83.10;;;;;;5027758;28;20467;-62
2022/10/23 03:05:27;;;;;;;1.98;1.40;;;13.60;83.20;;;;;;5074425;28;20055;-61
2022/10/23 03:07:53;;;;;;;2.00;1.73;;;13.60;83.20;;;;;;5070075;28;20015;-62
2022/10/23 03:10:19;;;;;;;1.85;1.75;;;13.60;83.40;;;;;;5067126;28;20032;-61
2022/10/23 03:12:46;;;;;;;1.85;1.75;;;13.60;83.30;;;;;;5073698;28;20036;-62
2022/10/23 03:15:12;;;;;;;1.50;1.40;;;13.60;83.40;;;;;;5073913;28;20024;-62
2022/10/23 03:17:38;;;;;;;2.38;1.77;;;13.60;83.50;;;;;;5073486;28;20562;-62
2022/10/23 03:20:05;;;;;;;1.67;1.48;;;13.50;83.40;;;;;;5067516;28;20025;-61
2022/10/23 03:22:31;;;;;;;2.97;1.80;;;13.60;83.50;;;;;;5055087;28;20020;-62
2022/10/23 03:24:56;;;;;;;2.05;1.67;;;13.50;83.50;;;;;;5072802;28;20047;-62
2022/10/23 03:27:22;;;;;;;2.10;1.90;;;13.60;83.60;;;;;;5070650;28;20074;-62
2022/10/23 03:29:48;;;;;;;1.58;1.48;;;13.60;83.70;;;;;;5073039;28;20080;-61
2022/10/23 03:32:13;;;;;;;2.13;1.77;;;13.60;83.80;;;;;;5073549;28;20395;-61
2022/10/23 03:34:39;;;;;;;2.70;1.90;;;13.60;84.00;;;;;;5072659;28;20028;-62
2022/10/23 03:37:05;;;;;;;1.80;1.70;;;13.60;84.00;;;;;;5072921;28;20032;-62
2022/10/23 03:39:30;;;;;;;2.00;1.75;;;13.50;83.90;;;;;;5071708;28;20127;-62
2022/10/23 03:41:56;;;;;;;1.75;1.60;;;13.50;83.90;;;;;;5068016;28;20029;-62
2022/10/23 03:44:22;;;;;;;2.47;1.80;;;13.50;84.00;;;;;;5070184;28;20025;-62
2022/10/23 03:46:47;;;;;;;1.92;1.70;;;13.60;84.10;;;;;;5084260;28;20028;-62
2022/10/23 03:49:13;;;;;;;1.83;1.60;;;13.60;84.10;;;;;;5071498;28;20028;-61
2022/10/23 03:51:40;;;;;;;1.88;1.50;;;13.50;84.10;;;;;;5072643;28;20082;-62
2022/10/23 03:54:07;;;;;;;1.60;1.50;;;13.60;84.20;;;;;;5071661;28;20610;-62
2022/10/23 03:56:33;;;;;;;3.70;1.80;;;13.60;84.30;;;;;;5071391;28;20391;-61
2022/10/23 03:58:59;;;;;;;3.45;1.33;;;13.60;84.30;;;;;;5071481;28;20037;-62
2022/10/23 04:01:25;;;;;;;1.80;1.70;;;13.60;84.40;;;;;;5073005;28;20033;-62
2022/10/23 04:03:50;;;;;;;1.60;1.50;;;13.60;84.50;;;;;;5072187;28;20340;-62
2022/10/23 04:06:16;;;;;;;1.70;1.60;;;13.60;84.50;;;;;;5073061;28;20056;-62
2022/10/23 04:08:43;;;;;;;1.90;1.63;;;13.60;84.50;;;;;;5071694;28;20051;-61
2022/10/23 04:11:09;;;;;;;3.15;2.20;;;13.60;84.50;;;;;;5072423;28;20021;-62
2022/10/23 04:13:35;;;;;;;3.63;1.92;;;13.60;84.70;;;;;;5071887;28;20040;-61
2022/10/23 04:16:00;;;;;;;2.70;2.35;;;13.60;84.70;;;;;;5072293;28;20383;-62
2022/10/23 04:18:26;;;;;;;2.65;2.17;;;13.50;84.70;;;;;;5072170;28;20024;-61
2022/10/23 04:20:52;;;;;;;2.90;2.42;;;13.60;84.70;;;;;;5071893;28;20491;-62
2022/10/23 04:23:18;;;;;;;2.17;2.05;;;13.60;84.70;;;;;;5072471;28;20037;-61
2022/10/23 04:25:43;;;;;;;3.15;2.50;;;13.60;84.70;;;;;;5072123;28;20460;-61
2022/10/23 04:28:09;;;;;;;2.70;2.40;;;13.60;84.80;;;;;;5072193;28;20467;-62
2022/10/23 04:30:35;;;;;;;2.30;2.10;;;13.60;84.80;;;;;;5066977;28;20020;-62
2022/10/23 04:33:00;;;;;;;1.95;1.85;;;13.60;84.80;;;;;;5070833;28;20535;-62
2022/10/23 04:35:26;;;;;;;2.35;2.13;;;13.60;85.00;;;;;;5072136;28;20028;-62
2022/10/23 04:37:51;;;;;;;2.08;1.88;;;13.60;85.00;;;;;;5069981;28;20060;-62
2022/10/23 04:40:17;;;;;;;2.65;2.13;;;13.60;85.00;;;;;;5071792;28;20033;-62
2022/10/23 04:42:43;;;;;;;1.92;1.60;;;13.60;85.00;;;;;;5062022;28;20415;-62
2022/10/23 04:45:08;;;;;;;2.10;1.90;;;13.60;84.90;;;;;;5096214;28;20028;-62
2022/10/23 04:47:34;;;;;;;1.63;1.52;;;13.60;85.00;;;;;;5097578;28;20084;-61
2022/10/23 04:50:00;;;;;;;2.00;1.75;;;13.60;85.00;;;;;;5097782;28;20031;-62
2022/10/23 04:52:25;;;;;;;2.55;2.22;;;13.60;85.20;;;;;;5097571;28;20009;-61
2022/10/23 04:54:51;;;;;;;2.30;2.10;;;13.60;85.30;;;;;;5097769;28;20023;-61
2022/10/23 04:57:16;;;;;;;1.83;1.58;;;13.60;85.30;;;;;;5097749;28;20016;-62
2022/10/23 04:59:42;;;;;;;2.55;1.90;;;13.60;85.30;;;;;;5097512;28;20043;-61
2022/10/23 05:02:08;;;;;;;2.13;1.70;;;13.60;85.40;;;;;;5096963;28;20028;-61
2022/10/23 05:04:33;;;;;;;2.78;1.90;;;13.60;85.50;;;;;;5097880;28;20028;-61
2022/10/23 05:07:00;;;;;;;2.08;1.63;;;13.60;85.60;;;;;;5103895;28;20028;-62
2022/10/23 05:09:26;;;;;;;1.92;1.67;;;13.50;85.70;;;;;;5104416;28;20031;-62
2022/10/23 05:11:51;;;;;;;2.22;2.03;;;13.50;85.70;;;;;;5103960;28;20020;-61
2022/10/23 05:14:17;;;;;;;2.53;1.67;;;13.50;85.70;;;;;;5103829;28;20043;-60
2022/10/23 05:17:03;;;;;;;1.80;1.70;;;13.50;85.80;;;;;;5103884;28;20036;-61
2022/10/23 05:19:52;;;;;;;1.77;1.67;;;13.50;85.80;;;;;;5103789;28;20032;-61
2022/10/23 05:22:19;;;;;;;3.08;2.08;;;13.50;85.80;;;;;;5098098;28;20008;-62
2022/10/23 05:24:45;;;;;;;1.88;1.77;;;13.50;86.10;;;;;;5108297;28;20035;-61
2022/10/23 05:27:11;;;;;;;1.90;1.67;;;13.50;86.20;;;;;;5103270;28;20019;-62
2022/10/23 05:29:36;;;;;;;1.35;1.27;;;13.50;86.10;;;;;;5102747;28;20024;-62
2022/10/23 05:32:05;;;;;;;1.70;1.60;;;13.60;86.20;;;;;;5103746;28;20073;-62
2022/10/23 05:34:33;;;;;;;1.67;1.58;;;13.60;86.10;;;;;;5102527;28;20052;-62
2022/10/23 05:37:01;;;;;;;2.83;2.15;;;13.50;86.00;;;;;;5098976;28;20051;-62
2022/10/23 05:39:27;;;;;;;3.05;2.20;;;13.60;85.90;;;;;;5111589;28;20480;-61
2022/10/23 05:41:53;;;;;;;2.47;2.25;;;13.60;85.90;;;;;;5103072;28;20036;-62
2022/10/23 05:44:20;;;;;;;3.17;2.10;;;13.60;86.00;;;;;;5102434;28;20080;-62
2022/10/23 05:46:46;;;;;;;2.28;2.08;;;13.60;86.00;;;;;;5102951;28;20004;-62
2022/10/23 05:49:11;;;;;;;2.15;1.95;;;13.50;86.00;;;;;;5090727;28;20047;-61
2022/10/23 05:51:38;;;;;;;1.90;1.80;;;13.50;86.30;;;;;;5066857;28;20375;-61
2022/10/23 05:54:07;;;;;;;1.98;1.77;;;13.50;86.50;;;;;;5081802;28;20036;-61
2022/10/23 05:56:33;;;;;;;2.38;2.17;;;13.50;86.40;;;;;;5079436;28;20024;-61
2022/10/23 05:58:59;;;;;;;2.83;2.03;;;13.50;86.40;;;;;;5075906;28;20036;-61
2022/10/23 06:01:25;;;;;;;2.53;2.30;;;13.50;86.40;;;;;;5073635;28;20066;-61
2022/10/23 06:03:50;;;;;;;3.25;2.35;;;13.50;86.60;;;;;;5086114;28;20052;-61
2022/10/23 06:06:16;;;;;;;2.78;2.17;;;13.50;86.50;;;;;;5084399;28;20029;-61
2022/10/23 06:08:42;;;;;;;2.55;2.10;;;13.50;86.50;;;;;;5083041;28;20483;-60
2022/10/23 06:11:10;;;;;;;2.22;2.03;;;13.60;86.60;;;;;;5073206;28;20032;-61
2022/10/23 06:13:36;;;;;;;2.15;1.85;;;13.60;86.60;;;;;;5084870;28;20410;-61
2022/10/23 06:16:14;;;;;;;1.70;1.60;;;13.60;86.60;;;;;;5083282;28;20036;-66
2022/10/23 06:18:40;;;;;;;2.40;2.20;;;13.60;86.60;;;;;;5084738;28;20032;-67
2022/10/23 06:21:06;;;;;;;2.17;2.00;;;13.60;86.70;;;;;;5086571;28;20029;-67
2022/10/23 06:23:33;;;;;;;2.15;1.80;;;13.60;86.90;;;;;;5076122;28;20035;-64
2022/10/23 06:25:59;;;;;;;2.50;1.85;;;13.60;86.80;;;;;;5087300;28;20577;-67
2022/10/23 06:28:25;;;;;;;2.78;2.10;;;13.60;86.90;;;;;;5090486;28;20021;-66
2022/10/23 06:30:50;;;;;;;2.20;2.00;;;13.60;86.90;;;;;;5088422;28;20017;-66
2022/10/23 06:33:16;;;;;;;1.90;1.60;;;13.60;86.90;;;;;;5085048;28;20032;-66
2022/10/23 06:35:42;;;;;;;2.10;2.00;;;13.60;86.90;;;;;;5079224;28;20054;-66
2022/10/23 06:38:09;;;;;;;2.40;2.20;;;13.70;87.10;;;;;;5091134;28;20032;-66
2022/10/23 06:40:36;;;;;;;2.17;2.00;;;13.60;87.00;;;;;;5088219;28;20016;-64
2022/10/23 06:43:02;;;;;;;2.65;2.30;;;13.70;87.10;;;;;;5081040;28;20084;-66
2022/10/23 06:45:28;;;;;;;4.15;2.53;;;13.60;87.20;;;;;;5084635;28;20033;-64
2022/10/23 06:47:54;;;;;;;2.88;2.58;;;13.70;87.20;;;;;;5092440;28;20049;-67
2022/10/23 06:50:20;;;;;;;3.35;2.40;;;13.60;87.30;;;;;;5090409;28;20025;-66
2022/10/23 06:52:46;;;;;;;3.05;2.45;;;13.60;87.40;;;;;;5087656;28;20081;-67
2022/10/23 06:55:11;;;;;;;2.50;2.30;;;13.60;87.50;;;;;;5085178;28;20026;-67
2022/10/23 06:57:37;;;;;;;3.35;2.58;;;13.60;87.60;;;;;;5078212;28;20055;-64
2022/10/23 07:00:04;;;;;;;2.92;2.47;;;13.70;87.70;;;;;;5078510;28;20044;-66
2022/10/23 07:02:29;;;;;;;4.68;2.90;;;13.60;87.70;;;;;;5077393;28;20036;-66
2022/10/23 07:04:55;;;;;;;5.03;2.95;;;13.60;87.80;;;;;;5087605;28;20040;-66
2022/10/23 07:07:20;;;;;;;3.88;2.90;;;13.60;87.80;;;;;;5086434;28;20028;-65
2022/10/23 07:09:46;;;;;;;3.53;3.10;;;13.60;87.70;;;;;;5083026;28;20036;-66
2022/10/23 07:12:12;;;;;;;4.32;3.22;;;13.60;87.70;;;;;;5080129;28;20024;-66
2022/10/23 07:14:37;;;;;;;3.22;2.90;;;13.70;87.70;;;;;;5078658;28;20044;-65
2022/10/23 07:17:03;;;;;;;3.75;2.78;;;13.60;87.60;;;;;;5081938;28;20017;-66
2022/10/23 07:19:29;;;;;;;3.45;2.97;;;13.60;87.70;;;;;;5080150;28;20025;-66
2022/10/23 07:21:54;;;;;;;2.97;2.75;;;13.60;87.80;;;;;;5062936;28;20078;-67
2022/10/23 07:24:20;;;;;;;4.22;3.25;;;13.60;87.80;;;;;;5069941;28;20033;-66
2022/10/23 07:26:45;;;;;;;3.40;2.90;;;13.60;87.80;;;;;;5080492;28;20028;-67
2022/10/23 07:29:11;;;;;;;4.97;3.35;;;13.60;87.80;;;;;;5078206;28;20099;-66
2022/10/23 07:31:37;;;;;;;4.13;3.10;;;13.60;87.90;;;;;;5083597;28;20004;-66
2022/10/23 07:34:03;;;;;;;4.68;3.13;;;13.60;87.90;;;;;;5085025;28;20078;-67
2022/10/23 07:36:29;;;;;;;5.85;3.20;;;13.60;88.00;;;;;;5084371;28;20029;-66
2022/10/23 07:38:55;;;;;;;3.13;2.63;;;13.60;87.90;;;;;;5082654;28;20082;-67
2022/10/23 07:41:20;;;;;;;3.80;2.55;;;13.60;88.00;;;;;;5080120;28;20028;-67
2022/10/23 07:43:46;;;;;;;2.97;2.67;;;13.60;88.00;;;;;;5087101;28;20382;-65
2022/10/23 07:46:11;;;;;;;3.85;2.97;;;13.60;88.00;;;;;;5080799;28;20025;-67
2022/10/23 07:48:38;;;;;;;3.33;3.00;;;13.60;88.10;;;;;;5072767;28;20008;-63
2022/10/23 07:51:07;;;;;;;3.10;2.80;;;13.60;88.10;;;;;;5076597;28;20380;-67
2022/10/23 07:53:34;;;;;;;3.40;2.80;;;13.60;88.10;;;;;;5079735;28;20104;-66
2022/10/23 07:56:02;;;;;;;3.60;2.80;;;13.60;88.10;;;;;;5083285;28;20038;-64
2022/10/23 07:58:28;;;;;;;3.92;3.05;;;13.60;88.20;;;;;;5082246;28;20111;-66
2022/10/23 08:01:09;;;;;;;4.72;3.28;;;13.60;88.20;;;;;;5082153;28;20494;-65
2022/10/23 08:03:34;;;;;;;7.28;3.83;;;13.60;88.10;;;;;;5084702;28;20395;-67
2022/10/23 08:06:00;;;;;;;4.05;3.25;;;13.60;88.00;;;;;;5083967;28;20064;-67
2022/10/23 08:08:26;;;;;;;4.97;3.80;;;13.60;88.00;;;;;;5084881;28;20076;-64
2022/10/23 08:10:54;;;;;;;3.88;3.47;;;13.60;88.00;;;;;;5080248;28;20256;-67
2022/10/23 08:13:20;;;;;;;4.22;3.53;;;13.60;88.00;;;;;;5084352;22;20400;-84
2022/10/23 08:15:48;;;;;;;4.55;3.50;;;13.50;88.00;;;;;;5051171;28;20021;-85
2022/10/23 08:18:14;;;;;;;4.88;3.75;;;13.60;88.00;;;;;;5036340;28;20029;-85
2022/10/23 08:20:42;;;;;;;5.72;3.65;;;13.50;87.90;;;;;;5040730;28;20120;-85
2022/10/23 08:23:08;;;;;;;3.75;3.20;;;13.50;87.80;;;;;;5051462;28;20037;-85
2022/10/23 08:25:33;;;;;;;4.28;3.35;;;13.50;88.00;;;;;;5053758;28;20078;-85
2022/10/23 08:28:00;;;;;;;4.03;3.10;;;13.50;88.00;;;;;;5074760;28;20024;-85
2022/10/23 08:30:26;;;;;;;3.88;3.20;;;13.50;87.80;;;;;;5049374;28;20082;-85
2022/10/23 08:32:51;;;;;;;5.05;3.78;;;13.50;87.80;;;;;;5054853;28;20488;-85
2022/10/23 08:35:17;;;;;;;4.97;3.35;;;13.60;87.80;;;;;;5074501;28;20029;-85
2022/10/23 08:37:43;;;;;;;4.60;3.30;;;13.60;87.80;;;;;;5042848;28;20063;-86
2022/10/23 08:40:18;;;;;;;4.85;3.45;;;13.60;87.80;;;;;;5042559;28;20036;-85
2022/10/23 08:42:52;;;;;;;4.47;3.40;;;13.60;87.80;;;;;;5066061;28;20070;-85
2022/10/23 08:45:36;;;;;;;5.20;4.00;;;13.60;87.80;;;;;;5049013;28;20496;-86
2022/10/23 08:48:29;;;;;;;5.80;4.00;;;13.60;87.80;;;;;;5050333;28;20024;-86
2022/10/23 08:51:20;;;;;;;4.38;3.40;;;13.60;87.60;;;;;;5073619;28;20032;-86
2022/10/23 08:54:05;;;;;;;4.47;3.63;;;13.60;87.80;;;;;;5063920;28;20057;-86
2022/10/23 08:56:34;;;;;;;4.75;3.45;;;13.60;87.80;;;;;;5036169;28;20033;-85
2022/10/23 08:59:19;;;;;;;4.78;3.50;;;13.60;87.90;;;;;;5054256;28;20025;-85
2022/10/23 09:02:02;;;;;;;4.97;3.40;;;13.60;87.80;;;;;;5044124;28;20021;-84
2022/10/23 09:04:28;;;;;;;4.75;3.80;;;13.70;87.80;;;;;;5058352;28;20047;-84
2022/10/23 09:07:21;;;;;;;5.65;4.10;;;13.60;87.90;;;;;;5064651;28;20166;-85
2022/10/23 09:10:19;;;;;;;5.78;3.88;;;13.60;87.80;;;;;;5053786;28;20017;-85
2022/10/23 09:12:45;;;;;;;4.78;3.53;;;13.70;87.80;;;;;;5055095;28;20037;-85
2022/10/23 09:15:50;;;;;;;4.50;3.50;;;13.60;88.10;;;;;;5069706;28;20184;-85
2022/10/23 09:18:16;;;;;;;6.60;3.88;;;13.70;88.00;;;;;;5070521;28;20500;-85
2022/10/23 09:20:44;;;;;;;4.20;3.50;;;13.70;88.00;;;;;;5049409;28;20028;-85
2022/10/23 09:23:18;;;;;;;6.20;4.03;;;13.80;87.90;;;;;;5065224;28;20040;-83
2022/10/23 09:25:47;;;;;;;5.82;4.38;;;13.80;88.00;;;;;;5071529;28;20080;-83
2022/10/23 09:28:21;;;;;;;5.25;3.97;;;13.80;87.70;;;;;;5071993;28;20012;-83
2022/10/23 09:30:47;;;;;;;5.10;3.92;;;13.80;87.50;;;;;;5071323;28;20021;-83
2022/10/23 09:33:21;;;;;;;5.55;4.30;;;13.80;87.70;;;;;;5074656;28;20042;-83
2022/10/23 09:35:57;;;;;;;4.72;3.63;;;13.80;87.60;;;;;;5074940;28;20025;-83
2022/10/23 09:38:38;;;;;;;5.50;3.78;;;13.80;87.80;;;;;;5068469;28;20036;-83
2022/10/23 09:41:26;;;;;;;5.72;4.07;;;13.90;87.90;;;;;;5072744;28;20035;-83
2022/10/23 09:44:17;;;;;;;5.47;3.85;;;13.90;87.70;;;;;;5065688;28;20020;-83
2022/10/23 09:46:48;;;;;;;5.03;3.90;;;13.90;87.70;;;;;;5064840;28;20081;-83
2022/10/23 09:49:24;;;;;;;5.47;4.70;;;14.00;87.80;;;;;;5086776;28;20025;-83
2022/10/23 09:52:08;;;;;;;5.53;4.50;;;14.00;87.70;;;;;;5065196;28;20025;-83
2022/10/23 09:54:37;;;;;;;5.53;4.20;;;14.00;87.50;;;;;;5093929;28;20092;-83
2022/10/23 09:57:36;;;;;;;5.28;4.00;;;14.00;87.60;;;;;;5076383;28;20028;-83
2022/10/23 10:00:23;;;;;;;5.40;3.63;;;14.10;87.70;;;;;;5062406;28;20250;-83
2022/10/23 10:03:05;;;;;;;6.63;4.10;;;14.10;87.70;;;;;;5072723;28;20024;-83
2022/10/23 10:05:32;;;;;;;;;;;14.10;87.70;;;;;;5070858;28;20078;-83
2022/10/23 10:08:20;;;;;;;4.78;3.70;;;14.20;87.60;;;;;;5093650;28;19923;-83
2022/10/23 10:10:50;;;;;;;4.07;3.53;;;14.20;87.40;;;;;;5075436;28;20020;-83
2022/10/23 10:13:25;;;;;;;5.75;4.18;;;14.20;87.20;;;;;;5064913;28;20113;-83
2022/10/23 10:16:03;;;;;;;4.80;3.67;;;14.30;87.30;;;;;;5065502;28;20029;-83
2022/10/23 10:18:52;;;;;;;5.00;3.85;;;14.30;87.00;;;;;;5062720;28;20021;-83
2022/10/23 10:21:35;;;;;;;5.07;3.60;;;14.30;86.80;;;;;;5086126;28;20021;-83
2022/10/23 10:24:29;;;;;;;4.95;3.38;;;14.30;86.90;;;;;;5084299;28;20021;-84
2022/10/23 10:27:28;;;;;;;5.78;4.22;;;14.30;86.60;;;;;;5064277;28;20060;-83
2022/10/23 10:29:56;;;;;;;4.85;3.58;;;14.40;86.50;;;;;;5060199;28;20062;-83
2022/10/23 10:32:53;;;;;;;6.43;5.03;;;14.40;86.50;;;;;;5065901;28;20296;-83
2022/10/23 10:35:38;;;;;;;6.15;4.50;;;14.30;85.80;;;;;;5078467;28;20028;-83
2022/10/23 10:38:31;;;;;;;8.40;5.30;;;14.30;85.70;;;;;;5077676;28;20024;-83
2022/10/23 10:41:37;;;;;;;5.22;4.57;;;14.20;85.60;;;;;;5072139;28;20021;-83
2022/10/23 10:44:31;;;;;;;6.13;4.53;;;14.10;85.50;;;;;;5075888;28;20035;-83
2022/10/23 10:47:21;;;;;;;4.80;4.00;;;14.00;85.60;;;;;;5078668;28;20080;-83
2022/10/23 10:50:07;;;;;;;5.50;3.80;;;13.90;86.10;;;;;;5069061;28;20024;-83
2022/10/23 10:52:48;;;;;;;5.82;3.92;;;13.90;86.30;;;;;;5069655;28;20013;-83
2022/10/23 10:55:28;;;;;;;5.38;3.80;;;13.80;86.70;;;;;;5070922;28;20032;-83
2022/10/23 10:58:10;;;;;;;4.28;3.33;;;13.70;86.80;;;;;;5062177;28;20021;-83
2022/10/23 11:00:35;;;;;;;5.22;3.92;;;13.70;86.80;;;;;;5090023;28;20027;-83
2022/10/23 11:03:35;;;;;;;5.65;3.90;;;13.70;87.20;;;;;;5068874;28;20060;-83
2022/10/23 11:06:03;;;;;;;4.90;3.88;;;13.70;87.00;;;;;;5070463;28;20051;-83
2022/10/23 11:08:33;;;;;;;6.97;4.25;;;13.80;87.30;;;;;;5063953;28;20031;-84
2022/10/23 11:11:31;;;;;;;6.50;4.20;;;13.80;87.30;;;;;;5070158;28;20022;-83
2022/10/23 11:13:57;;;;;;;6.40;3.85;;;13.80;87.10;;;;;;5057467;28;20055;-83
2022/10/23 11:16:30;;;;;;;4.88;3.65;;;13.90;87.40;;;;;;5087933;28;20069;-83
2022/10/23 11:19:14;;;;;;;6.93;4.72;;;13.90;87.30;;;;;;5068449;28;20016;-83
2022/10/23 11:21:51;;;;;;;6.90;5.03;;;13.90;87.00;;;;;;5062373;28;20033;-83
2022/10/23 11:24:38;;;;;;;6.57;5.05;;;13.90;86.80;;;;;;5076016;28;20033;-83
2022/10/23 11:27:22;;;;;;;8.73;5.03;;;13.90;86.60;;;;;;5076545;28;20048;-83
2022/10/23 11:30:00;;;;;;;6.65;5.00;;;13.80;86.70;;;;;;5081270;28;20045;-83
2022/10/23 11:32:54;;;;;;;8.82;6.35;;;13.90;87.30;;;;;;5067430;28;20021;-83
2022/10/23 11:36:01;;;;;;;7.10;4.93;;;13.90;87.10;;;;;;5069732;28;20033;-83
2022/10/23 11:38:30;;;;;;;6.90;5.30;;;13.90;86.90;;;;;;5056735;28;20032;-83
2022/10/23 11:41:02;;;;;;;6.07;4.72;;;13.90;87.10;;;;;;5072162;28;20028;-83
2022/10/23 11:43:46;;;;;;;9.43;6.28;;;13.90;87.20;;;;;;5070987;28;20025;-83
2022/10/23 11:46:34;;;;;;;6.85;5.35;;;13.80;87.10;;;;;;5074067;28;20021;-83
2022/10/23 11:49:01;;;;;;;10.13;6.30;;;13.80;87.60;;;;;;5076328;28;20063;-83
2022/10/23 11:51:45;;;;;;;9.65;5.72;;;13.70;87.80;;;;;;5087045;28;20021;-83
2022/10/23 11:54:12;;;;;;;7.95;5.57;;;13.70;87.80;;;;;;5059706;28;20033;-83
2022/10/23 11:56:53;;;;;;;10.73;7.07;;;13.70;88.30;;;;;;5076972;28;20023;-84
2022/10/23 11:59:35;;;;;;;10.85;6.97;;;13.70;88.50;;;;;;5072290;28;20024;-83
2022/10/23 12:02:23;;;;;;;8.25;5.68;;;13.70;88.50;;;;;;5057388;28;20044;-83
2022/10/23 12:04:51;;;;;;;8.93;5.68;;;13.70;88.60;;;;;;5056799;28;20580;-85
2022/10/23 12:07:44;;;;;;;9.13;6.10;;;13.60;89.00;;;;;;5048596;28;20021;-85
2022/10/23 12:10:43;;;;;;;8.90;7.45;;;13.60;89.00;;;;;;5037746;28;20035;-85
2022/10/23 12:13:37;;;;;;;11.82;8.13;;;13.60;89.00;;;;;;5055907;28;20120;-85
2022/10/23 12:16:04;;;;;;;10.55;7.97;;;13.60;89.20;;;;;;5047027;28;20044;-85
2022/10/23 12:18:30;;;;;;;10.00;7.45;;;13.60;89.60;;;;;;5075854;28;20028;-85
2022/10/23 12:21:02;;;;;;;10.05;8.75;;;13.60;89.70;;;;;;5057458;28;20027;-85
2022/10/23 12:24:00;;;;;;;14.23;9.82;;;13.60;89.90;;;;;;5040435;28;20072;-85
2022/10/23 12:26:59;;;;;;;10.55;8.57;;;13.50;89.60;;;;;;5008385;28;20025;-85
2022/10/23 12:30:14;;;;;;;10.13;6.85;;;13.50;89.70;;;;;;5025810;28;20070;-85
2022/10/23 12:33:01;;;;;;;11.18;7.72;;;13.40;89.80;;;;;;5029414;28;20028;-85
2022/10/23 12:35:46;;;;;;;9.75;6.97;;;13.40;90.00;;;;;;5060782;28;20100;-85
2022/10/23 12:38:24;;;;;;;9.48;7.10;;;13.40;90.20;;;;;;5057544;28;20017;-85
2022/10/23 12:41:14;;;;;;;12.45;8.90;;;13.40;90.20;;;;;;5054308;28;20047;-85
2022/10/23 12:43:42;;;;;;;10.52;7.95;;;13.40;90.20;;;;;;5048955;28;20101;-85
2022/10/23 12:46:20;;;;;;;12.18;8.90;;;13.40;90.30;;;;;;5078508;28;20023;-85
2022/10/23 12:48:52;;;;;;;15.45;10.52;;;13.40;90.70;;;;;;5042443;28;20033;-85
2022/10/23 12:51:33;;;;;;;12.52;9.57;;;13.40;90.50;;;;;;5074477;28;20020;-85
2022/10/23 12:54:00;;;;;;;11.55;8.98;;;13.40;90.50;;;;;;5064131;28;20070;-85
2022/10/23 12:56:32;;;;;;;13.10;9.15;;;13.40;90.60;;;;;;5046607;28;20028;-85
2022/10/23 12:59:02;;;;;;;13.43;9.50;;;13.40;90.60;;;;;;5051027;28;20036;-85
2022/10/23 13:01:33;;;;;;;10.65;7.80;;;13.40;90.60;;;;;;5048064;28;20033;-85
2022/10/23 13:04:23;;;;;;;15.30;11.60;;;13.40;90.70;;;;;;5056678;28;20416;-85
2022/10/23 13:06:50;;;;;;;11.75;8.52;;;13.40;90.80;;;;;;5059353;28;20017;-85
2022/10/23 13:09:30;;;;;;;14.60;10.43;;;13.40;90.90;;;;;;5052721;28;20017;-85
2022/10/23 13:11:57;;;;;;;17.23;12.02;;;13.50;90.90;;;;;;5065177;28;20044;-86
2022/10/23 13:14:41;;;;;;;17.10;12.40;;;13.50;91.00;;;;;;5046993;28;20040;-86